sensor_id;sensor_type;location;lat;lon;timestamp;P1;durP1;ratioP1;P2;durP2;ratioP2
13973;SDS011;7060;43.770;4.008;2024-02-16T00:02:14;14.77;;;7.03;;
13973;SDS011;7060;43.770;4.008;2024-02-16T00:04:44;10.67;;;5.97;;
13973;SDS011;7060;43.770;4.008;2024-02-16T00:07:12;8.73;;;5.63;;
13973;SDS011;7060;43.770;4.008;2024-02-16T00:09:40;6.67;;;4.57;;
13973;SDS011;7060;43.770;4.008;2024-02-16T00:12:08;8.23;;;5.07;;
13973;SDS011;7060;43.770;4.008;2024-02-16T00:14:36;9.97;;;5.23;;
13973;SDS011;7060;43.770;4.008;2024-02-16T00:17:04;11.20;;;5.67;;
13973;SDS011;7060;43.770;4.008;2024-02-16T00:19:33;9.20;;;5.20;;
13973;SDS011;7060;43.770;4.008;2024-02-16T00:22:03;8.40;;;5.63;;
13973;SDS011;7060;43.770;4.008;2024-02-16T00:24:33;10.27;;;5.07;;
13973;SDS011;7060;43.770;4.008;2024-02-16T00:27:03;7.50;;;5.00;;
13973;SDS011;7060;43.770;4.008;2024-02-16T00:29:32;9.80;;;5.20;;
13973;SDS011;7060;43.770;4.008;2024-02-16T00:32:00;11.23;;;4.80;;
13973;SDS011;7060;43.770;4.008;2024-02-16T00:34:28;12.20;;;5.93;;
13973;SDS011;7060;43.770;4.008;2024-02-16T00:36:57;8.40;;;5.30;;
13973;SDS011;7060;43.770;4.008;2024-02-16T00:39:26;8.27;;;5.33;;
13973;SDS011;7060;43.770;4.008;2024-02-16T00:41:54;6.57;;;4.67;;
13973;SDS011;7060;43.770;4.008;2024-02-16T00:44:22;11.47;;;6.03;;
13973;SDS011;7060;43.770;4.008;2024-02-16T00:46:50;10.27;;;5.57;;
13973;SDS011;7060;43.770;4.008;2024-02-16T00:49:18;8.73;;;5.73;;
13973;SDS011;7060;43.770;4.008;2024-02-16T00:51:47;8.63;;;5.50;;
13973;SDS011;7060;43.770;4.008;2024-02-16T00:54:15;7.97;;;4.57;;
13973;SDS011;7060;43.770;4.008;2024-02-16T00:56:44;9.97;;;5.37;;
13973;SDS011;7060;43.770;4.008;2024-02-16T00:59:13;10.03;;;5.27;;
13973;SDS011;7060;43.770;4.008;2024-02-16T01:01:41;8.63;;;5.53;;
13973;SDS011;7060;43.770;4.008;2024-02-16T01:04:09;10.50;;;6.33;;
13973;SDS011;7060;43.770;4.008;2024-02-16T01:06:37;9.77;;;5.50;;
13973;SDS011;7060;43.770;4.008;2024-02-16T01:09:05;9.37;;;5.73;;
13973;SDS011;7060;43.770;4.008;2024-02-16T01:11:33;8.10;;;4.83;;
13973;SDS011;7060;43.770;4.008;2024-02-16T01:14:03;8.03;;;4.87;;
13973;SDS011;7060;43.770;4.008;2024-02-16T01:16:31;10.63;;;4.53;;
13973;SDS011;7060;43.770;4.008;2024-02-16T01:18:59;7.77;;;5.20;;
13973;SDS011;7060;43.770;4.008;2024-02-16T01:21:27;6.90;;;4.70;;
13973;SDS011;7060;43.770;4.008;2024-02-16T01:23:55;8.50;;;5.07;;
13973;SDS011;7060;43.770;4.008;2024-02-16T01:26:26;7.27;;;4.43;;
13973;SDS011;7060;43.770;4.008;2024-02-16T01:28:54;8.50;;;4.77;;
13973;SDS011;7060;43.770;4.008;2024-02-16T01:31:23;8.90;;;4.03;;
13973;SDS011;7060;43.770;4.008;2024-02-16T01:33:52;8.27;;;4.73;;
13973;SDS011;7060;43.770;4.008;2024-02-16T01:36:20;8.03;;;4.30;;
13973;SDS011;7060;43.770;4.008;2024-02-16T01:38:48;7.37;;;4.20;;
13973;SDS011;7060;43.770;4.008;2024-02-16T01:41:16;10.23;;;4.43;;
13973;SDS011;7060;43.770;4.008;2024-02-16T01:43:44;7.23;;;4.13;;
13973;SDS011;7060;43.770;4.008;2024-02-16T01:46:12;8.03;;;3.97;;
13973;SDS011;7060;43.770;4.008;2024-02-16T01:48:42;7.60;;;3.97;;
13973;SDS011;7060;43.770;4.008;2024-02-16T01:51:10;6.53;;;3.80;;
13973;SDS011;7060;43.770;4.008;2024-02-16T01:53:39;7.57;;;3.97;;
13973;SDS011;7060;43.770;4.008;2024-02-16T01:56:08;7.93;;;3.80;;
13973;SDS011;7060;43.770;4.008;2024-02-16T01:58:36;8.53;;;3.80;;
13973;SDS011;7060;43.770;4.008;2024-02-16T02:01:04;5.87;;;3.20;;
13973;SDS011;7060;43.770;4.008;2024-02-16T02:03:32;6.67;;;4.07;;
13973;SDS011;7060;43.770;4.008;2024-02-16T02:06:03;8.10;;;3.00;;
13973;SDS011;7060;43.770;4.008;2024-02-16T02:08:31;8.57;;;3.53;;
13973;SDS011;7060;43.770;4.008;2024-02-16T02:10:59;9.00;;;2.80;;
13973;SDS011;7060;43.770;4.008;2024-02-16T02:13:29;4.47;;;3.00;;
13973;SDS011;7060;43.770;4.008;2024-02-16T02:15:57;6.27;;;2.47;;
13973;SDS011;7060;43.770;4.008;2024-02-16T02:18:26;4.13;;;2.80;;
13973;SDS011;7060;43.770;4.008;2024-02-16T02:20:54;6.93;;;3.57;;
13973;SDS011;7060;43.770;4.008;2024-02-16T02:23:23;9.90;;;3.47;;
13973;SDS011;7060;43.770;4.008;2024-02-16T02:25:51;5.40;;;2.90;;
13973;SDS011;7060;43.770;4.008;2024-02-16T02:28:19;8.03;;;3.20;;
13973;SDS011;7060;43.770;4.008;2024-02-16T02:30:50;5.73;;;3.23;;
13973;SDS011;7060;43.770;4.008;2024-02-16T02:33:19;10.27;;;3.33;;
13973;SDS011;7060;43.770;4.008;2024-02-16T02:35:48;7.97;;;3.23;;
13973;SDS011;7060;43.770;4.008;2024-02-16T02:38:16;6.37;;;3.50;;
13973;SDS011;7060;43.770;4.008;2024-02-16T02:40:45;4.57;;;2.97;;
13973;SDS011;7060;43.770;4.008;2024-02-16T02:43:13;7.07;;;3.80;;
13973;SDS011;7060;43.770;4.008;2024-02-16T02:45:42;6.43;;;3.10;;
13973;SDS011;7060;43.770;4.008;2024-02-16T02:48:10;5.93;;;3.00;;
13973;SDS011;7060;43.770;4.008;2024-02-16T02:50:38;10.60;;;2.97;;
13973;SDS011;7060;43.770;4.008;2024-02-16T02:53:06;4.13;;;2.63;;
13973;SDS011;7060;43.770;4.008;2024-02-16T02:55:34;4.77;;;2.93;;
13973;SDS011;7060;43.770;4.008;2024-02-16T02:58:03;6.57;;;3.00;;
13973;SDS011;7060;43.770;4.008;2024-02-16T03:00:31;5.27;;;2.87;;
13973;SDS011;7060;43.770;4.008;2024-02-16T03:02:59;6.27;;;2.60;;
13973;SDS011;7060;43.770;4.008;2024-02-16T03:05:28;4.03;;;2.23;;
13973;SDS011;7060;43.770;4.008;2024-02-16T03:07:56;5.37;;;2.83;;
13973;SDS011;7060;43.770;4.008;2024-02-16T03:10:25;4.90;;;2.93;;
13973;SDS011;7060;43.770;4.008;2024-02-16T03:12:53;5.60;;;2.73;;
13973;SDS011;7060;43.770;4.008;2024-02-16T03:15:23;7.93;;;2.40;;
13973;SDS011;7060;43.770;4.008;2024-02-16T03:17:51;4.97;;;2.73;;
13973;SDS011;7060;43.770;4.008;2024-02-16T03:20:19;8.37;;;3.17;;
13973;SDS011;7060;43.770;4.008;2024-02-16T03:22:48;8.77;;;2.87;;
13973;SDS011;7060;43.770;4.008;2024-02-16T03:25:16;4.17;;;2.50;;
13973;SDS011;7060;43.770;4.008;2024-02-16T03:27:44;3.77;;;2.90;;
13973;SDS011;7060;43.770;4.008;2024-02-16T03:30:13;5.97;;;2.80;;
13973;SDS011;7060;43.770;4.008;2024-02-16T03:32:42;7.37;;;2.50;;
13973;SDS011;7060;43.770;4.008;2024-02-16T03:35:10;7.37;;;2.23;;
13973;SDS011;7060;43.770;4.008;2024-02-16T03:37:38;4.60;;;2.60;;
13973;SDS011;7060;43.770;4.008;2024-02-16T03:40:07;4.20;;;2.07;;
13973;SDS011;7060;43.770;4.008;2024-02-16T03:42:36;5.23;;;2.00;;
13973;SDS011;7060;43.770;4.008;2024-02-16T03:45:04;3.10;;;2.30;;
13973;SDS011;7060;43.770;4.008;2024-02-16T03:47:33;6.70;;;2.43;;
13973;SDS011;7060;43.770;4.008;2024-02-16T03:50:03;5.53;;;1.93;;
13973;SDS011;7060;43.770;4.008;2024-02-16T03:52:31;5.33;;;2.10;;
13973;SDS011;7060;43.770;4.008;2024-02-16T03:54:59;6.80;;;3.10;;
13973;SDS011;7060;43.770;4.008;2024-02-16T03:57:27;6.13;;;2.40;;
13973;SDS011;7060;43.770;4.008;2024-02-16T03:59:55;2.70;;;2.07;;
13973;SDS011;7060;43.770;4.008;2024-02-16T04:02:23;6.63;;;2.57;;
13973;SDS011;7060;43.770;4.008;2024-02-16T04:04:51;6.83;;;2.67;;
13973;SDS011;7060;43.770;4.008;2024-02-16T04:07:20;4.53;;;2.50;;
13973;SDS011;7060;43.770;4.008;2024-02-16T04:09:48;5.17;;;2.83;;
13973;SDS011;7060;43.770;4.008;2024-02-16T04:12:16;5.63;;;2.87;;
13973;SDS011;7060;43.770;4.008;2024-02-16T04:14:45;5.30;;;2.50;;
13973;SDS011;7060;43.770;4.008;2024-02-16T04:17:13;3.37;;;2.23;;
13973;SDS011;7060;43.770;4.008;2024-02-16T04:19:41;4.27;;;2.57;;
13973;SDS011;7060;43.770;4.008;2024-02-16T04:22:09;5.83;;;2.83;;
13973;SDS011;7060;43.770;4.008;2024-02-16T04:24:38;4.70;;;2.10;;
13973;SDS011;7060;43.770;4.008;2024-02-16T04:27:06;6.13;;;2.50;;
13973;SDS011;7060;43.770;4.008;2024-02-16T04:29:35;6.67;;;2.90;;
13973;SDS011;7060;43.770;4.008;2024-02-16T04:32:03;4.40;;;2.50;;
13973;SDS011;7060;43.770;4.008;2024-02-16T04:34:31;4.50;;;2.27;;
13973;SDS011;7060;43.770;4.008;2024-02-16T04:37:00;5.63;;;2.13;;
13973;SDS011;7060;43.770;4.008;2024-02-16T04:39:28;4.60;;;2.47;;
13973;SDS011;7060;43.770;4.008;2024-02-16T04:41:58;7.70;;;2.73;;
13973;SDS011;7060;43.770;4.008;2024-02-16T04:44:26;6.17;;;2.53;;
13973;SDS011;7060;43.770;4.008;2024-02-16T04:46:55;5.87;;;2.70;;
13973;SDS011;7060;43.770;4.008;2024-02-16T04:49:23;5.53;;;2.93;;
13973;SDS011;7060;43.770;4.008;2024-02-16T04:51:51;5.17;;;2.93;;
13973;SDS011;7060;43.770;4.008;2024-02-16T04:54:19;4.07;;;2.30;;
13973;SDS011;7060;43.770;4.008;2024-02-16T04:56:47;6.20;;;2.53;;
13973;SDS011;7060;43.770;4.008;2024-02-16T04:59:17;5.07;;;2.73;;
13973;SDS011;7060;43.770;4.008;2024-02-16T05:01:45;7.87;;;2.73;;
13973;SDS011;7060;43.770;4.008;2024-02-16T05:04:13;4.97;;;3.03;;
13973;SDS011;7060;43.770;4.008;2024-02-16T05:06:44;5.53;;;3.77;;
13973;SDS011;7060;43.770;4.008;2024-02-16T05:09:13;3.60;;;2.30;;
13973;SDS011;7060;43.770;4.008;2024-02-16T05:11:43;4.97;;;2.70;;
13973;SDS011;7060;43.770;4.008;2024-02-16T05:14:12;4.07;;;2.40;;
13973;SDS011;7060;43.770;4.008;2024-02-16T05:16:43;5.77;;;2.20;;
13973;SDS011;7060;43.770;4.008;2024-02-16T05:19:12;4.53;;;2.20;;
13973;SDS011;7060;43.770;4.008;2024-02-16T05:21:40;5.07;;;2.40;;
13973;SDS011;7060;43.770;4.008;2024-02-16T05:24:08;4.60;;;2.33;;
13973;SDS011;7060;43.770;4.008;2024-02-16T05:26:36;2.53;;;2.00;;
13973;SDS011;7060;43.770;4.008;2024-02-16T05:29:05;4.90;;;2.17;;
13973;SDS011;7060;43.770;4.008;2024-02-16T05:31:33;5.60;;;2.00;;
13973;SDS011;7060;43.770;4.008;2024-02-16T05:34:02;5.43;;;2.37;;
13973;SDS011;7060;43.770;4.008;2024-02-16T05:36:30;3.87;;;2.07;;
13973;SDS011;7060;43.770;4.008;2024-02-16T05:39:02;6.07;;;2.50;;
13973;SDS011;7060;43.770;4.008;2024-02-16T05:41:47;4.10;;;2.40;;
13973;SDS011;7060;43.770;4.008;2024-02-16T05:44:15;6.23;;;3.00;;
13973;SDS011;7060;43.770;4.008;2024-02-16T05:46:44;5.30;;;3.60;;
13973;SDS011;7060;43.770;4.008;2024-02-16T05:49:13;6.43;;;3.30;;
13973;SDS011;7060;43.770;4.008;2024-02-16T05:51:42;3.60;;;2.90;;
13973;SDS011;7060;43.770;4.008;2024-02-16T05:54:30;5.43;;;3.43;;
13973;SDS011;7060;43.770;4.008;2024-02-16T05:57:00;5.30;;;3.93;;
13973;SDS011;7060;43.770;4.008;2024-02-16T05:59:30;5.50;;;3.33;;
13973;SDS011;7060;43.770;4.008;2024-02-16T06:01:59;5.07;;;3.33;;
13973;SDS011;7060;43.770;4.008;2024-02-16T06:04:28;9.37;;;3.17;;
13973;SDS011;7060;43.770;4.008;2024-02-16T06:06:56;2.70;;;2.07;;
13973;SDS011;7060;43.770;4.008;2024-02-16T06:09:25;5.80;;;3.10;;
13973;SDS011;7060;43.770;4.008;2024-02-16T06:11:56;5.90;;;3.33;;
13973;SDS011;7060;43.770;4.008;2024-02-16T06:14:24;5.03;;;3.03;;
13973;SDS011;7060;43.770;4.008;2024-02-16T06:16:52;5.40;;;3.20;;
13973;SDS011;7060;43.770;4.008;2024-02-16T06:19:20;6.10;;;3.13;;
13973;SDS011;7060;43.770;4.008;2024-02-16T06:21:49;4.60;;;3.03;;
13973;SDS011;7060;43.770;4.008;2024-02-16T06:24:17;4.63;;;2.90;;
13973;SDS011;7060;43.770;4.008;2024-02-16T06:26:46;5.37;;;2.50;;
13973;SDS011;7060;43.770;4.008;2024-02-16T06:29:14;4.23;;;2.53;;
13973;SDS011;7060;43.770;4.008;2024-02-16T06:31:42;5.47;;;2.30;;
13973;SDS011;7060;43.770;4.008;2024-02-16T06:34:10;4.30;;;2.40;;
13973;SDS011;7060;43.770;4.008;2024-02-16T06:36:39;4.90;;;2.70;;
13973;SDS011;7060;43.770;4.008;2024-02-16T06:39:10;4.93;;;3.17;;
13973;SDS011;7060;43.770;4.008;2024-02-16T06:41:43;5.40;;;3.33;;
13973;SDS011;7060;43.770;4.008;2024-02-16T06:44:11;6.33;;;3.80;;
13973;SDS011;7060;43.770;4.008;2024-02-16T06:46:40;11.80;;;4.60;;
13973;SDS011;7060;43.770;4.008;2024-02-16T06:49:09;8.60;;;6.97;;
13973;SDS011;7060;43.770;4.008;2024-02-16T06:51:37;8.77;;;7.20;;
13973;SDS011;7060;43.770;4.008;2024-02-16T06:54:05;12.30;;;7.87;;
13973;SDS011;7060;43.770;4.008;2024-02-16T06:56:35;10.63;;;6.87;;
13973;SDS011;7060;43.770;4.008;2024-02-16T06:59:03;6.83;;;6.13;;
13973;SDS011;7060;43.770;4.008;2024-02-16T07:01:31;10.50;;;6.67;;
13973;SDS011;7060;43.770;4.008;2024-02-16T07:03:59;9.13;;;7.03;;
13973;SDS011;7060;43.770;4.008;2024-02-16T07:06:28;8.50;;;5.70;;
13973;SDS011;7060;43.770;4.008;2024-02-16T07:08:56;7.80;;;5.50;;
13973;SDS011;7060;43.770;4.008;2024-02-16T07:11:24;8.87;;;6.03;;
13973;SDS011;7060;43.770;4.008;2024-02-16T07:13:54;6.53;;;5.60;;
13973;SDS011;7060;43.770;4.008;2024-02-16T07:16:22;11.47;;;6.40;;
13973;SDS011;7060;43.770;4.008;2024-02-16T07:18:50;12.07;;;6.07;;
13973;SDS011;7060;43.770;4.008;2024-02-16T07:21:18;10.53;;;7.80;;
13973;SDS011;7060;43.770;4.008;2024-02-16T07:23:48;8.03;;;4.70;;
13973;SDS011;7060;43.770;4.008;2024-02-16T07:26:17;11.57;;;6.47;;
13973;SDS011;7060;43.770;4.008;2024-02-16T07:28:46;10.57;;;7.00;;
13973;SDS011;7060;43.770;4.008;2024-02-16T07:31:15;9.40;;;6.87;;
13973;SDS011;7060;43.770;4.008;2024-02-16T07:33:43;9.47;;;6.97;;
13973;SDS011;7060;43.770;4.008;2024-02-16T07:36:11;11.40;;;6.70;;
13973;SDS011;7060;43.770;4.008;2024-02-16T07:38:40;14.03;;;8.97;;
13973;SDS011;7060;43.770;4.008;2024-02-16T07:41:09;16.37;;;9.60;;
13973;SDS011;7060;43.770;4.008;2024-02-16T07:43:37;13.10;;;9.60;;
13973;SDS011;7060;43.770;4.008;2024-02-16T07:46:05;12.27;;;7.90;;
13973;SDS011;7060;43.770;4.008;2024-02-16T07:48:36;13.63;;;8.63;;
13973;SDS011;7060;43.770;4.008;2024-02-16T07:51:04;12.77;;;10.47;;
13973;SDS011;7060;43.770;4.008;2024-02-16T07:53:32;9.70;;;8.00;;
13973;SDS011;7060;43.770;4.008;2024-02-16T07:56:00;11.93;;;9.70;;
13973;SDS011;7060;43.770;4.008;2024-02-16T07:58:28;9.63;;;8.70;;
13973;SDS011;7060;43.770;4.008;2024-02-16T08:00:56;12.20;;;9.37;;
13973;SDS011;7060;43.770;4.008;2024-02-16T08:03:24;14.33;;;10.20;;
13973;SDS011;7060;43.770;4.008;2024-02-16T08:05:55;12.93;;;9.33;;
13973;SDS011;7060;43.770;4.008;2024-02-16T08:08:23;11.43;;;8.90;;
13973;SDS011;7060;43.770;4.008;2024-02-16T08:10:52;11.20;;;9.60;;
13973;SDS011;7060;43.770;4.008;2024-02-16T08:13:20;14.57;;;10.70;;
13973;SDS011;7060;43.770;4.008;2024-02-16T08:15:48;18.57;;;11.27;;
13973;SDS011;7060;43.770;4.008;2024-02-16T08:18:18;18.10;;;10.33;;
13973;SDS011;7060;43.770;4.008;2024-02-16T08:20:47;29.42;;;11.50;;
13973;SDS011;7060;43.770;4.008;2024-02-16T08:23:16;14.87;;;9.33;;
13973;SDS011;7060;43.770;4.008;2024-02-16T08:25:44;14.07;;;7.90;;
13973;SDS011;7060;43.770;4.008;2024-02-16T08:28:12;13.27;;;8.07;;
13973;SDS011;7060;43.770;4.008;2024-02-16T08:30:40;13.27;;;6.60;;
13973;SDS011;7060;43.770;4.008;2024-02-16T08:33:10;14.77;;;6.83;;
13973;SDS011;7060;43.770;4.008;2024-02-16T08:35:39;8.30;;;5.67;;
13973;SDS011;7060;43.770;4.008;2024-02-16T08:38:07;13.43;;;5.40;;
13973;SDS011;7060;43.770;4.008;2024-02-16T08:40:39;7.93;;;5.60;;
13973;SDS011;7060;43.770;4.008;2024-02-16T08:43:07;7.60;;;4.57;;
13973;SDS011;7060;43.770;4.008;2024-02-16T08:45:35;7.07;;;4.40;;
13973;SDS011;7060;43.770;4.008;2024-02-16T08:48:04;8.37;;;5.20;;
13973;SDS011;7060;43.770;4.008;2024-02-16T08:50:32;10.13;;;5.97;;
13973;SDS011;7060;43.770;4.008;2024-02-16T08:53:00;10.33;;;5.67;;
13973;SDS011;7060;43.770;4.008;2024-02-16T08:55:28;10.07;;;5.77;;
13973;SDS011;7060;43.770;4.008;2024-02-16T08:57:58;8.90;;;5.97;;
13973;SDS011;7060;43.770;4.008;2024-02-16T09:00:26;37.77;;;32.83;;
13973;SDS011;7060;43.770;4.008;2024-02-16T09:02:54;64.33;;;53.77;;
13973;SDS011;7060;43.770;4.008;2024-02-16T09:05:24;50.17;;;41.73;;
13973;SDS011;7060;43.770;4.008;2024-02-16T09:07:53;13.83;;;9.77;;
13973;SDS011;7060;43.770;4.008;2024-02-16T09:10:21;12.10;;;7.97;;
13973;SDS011;7060;43.770;4.008;2024-02-16T09:12:50;10.83;;;5.37;;
13973;SDS011;7060;43.770;4.008;2024-02-16T09:15:20;5.77;;;2.83;;
13973;SDS011;7060;43.770;4.008;2024-02-16T09:17:48;6.20;;;3.40;;
13973;SDS011;7060;43.770;4.008;2024-02-16T09:20:16;7.40;;;3.33;;
13973;SDS011;7060;43.770;4.008;2024-02-16T09:22:48;5.90;;;2.97;;
13973;SDS011;7060;43.770;4.008;2024-02-16T09:25:16;3.93;;;2.83;;
13973;SDS011;7060;43.770;4.008;2024-02-16T09:27:44;8.03;;;3.17;;
13973;SDS011;7060;43.770;4.008;2024-02-16T09:30:13;10.60;;;3.40;;
13973;SDS011;7060;43.770;4.008;2024-02-16T09:32:43;6.17;;;2.70;;
13973;SDS011;7060;43.770;4.008;2024-02-16T09:35:11;5.73;;;2.57;;
13973;SDS011;7060;43.770;4.008;2024-02-16T09:37:40;5.60;;;2.70;;
13973;SDS011;7060;43.770;4.008;2024-02-16T09:40:08;8.70;;;3.67;;
13973;SDS011;7060;43.770;4.008;2024-02-16T09:42:40;5.00;;;2.50;;
13973;SDS011;7060;43.770;4.008;2024-02-16T09:45:08;4.43;;;2.77;;
13973;SDS011;7060;43.770;4.008;2024-02-16T09:47:38;6.43;;;3.67;;
13973;SDS011;7060;43.770;4.008;2024-02-16T09:50:20;8.03;;;4.10;;
13973;SDS011;7060;43.770;4.008;2024-02-16T09:52:50;6.70;;;3.50;;
13973;SDS011;7060;43.770;4.008;2024-02-16T09:55:18;8.87;;;4.13;;
13973;SDS011;7060;43.770;4.008;2024-02-16T09:57:46;6.10;;;3.03;;
13973;SDS011;7060;43.770;4.008;2024-02-16T10:00:15;7.43;;;3.87;;
13973;SDS011;7060;43.770;4.008;2024-02-16T10:02:44;5.00;;;1.97;;
13973;SDS011;7060;43.770;4.008;2024-02-16T10:05:13;7.17;;;2.40;;
13973;SDS011;7060;43.770;4.008;2024-02-16T10:07:46;5.57;;;2.30;;
13973;SDS011;7060;43.770;4.008;2024-02-16T10:10:20;6.27;;;2.10;;
13973;SDS011;7060;43.770;4.008;2024-02-16T10:12:49;9.00;;;2.13;;
13973;SDS011;7060;43.770;4.008;2024-02-16T10:15:19;5.23;;;2.17;;
13973;SDS011;7060;43.770;4.008;2024-02-16T10:17:57;5.97;;;2.43;;
13973;SDS011;7060;43.770;4.008;2024-02-16T10:20:25;5.63;;;1.90;;
13973;SDS011;7060;43.770;4.008;2024-02-16T10:23:07;3.93;;;1.73;;
13973;SDS011;7060;43.770;4.008;2024-02-16T10:25:37;4.97;;;1.53;;
13973;SDS011;7060;43.770;4.008;2024-02-16T10:28:08;4.00;;;1.83;;
13973;SDS011;7060;43.770;4.008;2024-02-16T10:30:39;3.77;;;1.77;;
13973;SDS011;7060;43.770;4.008;2024-02-16T10:33:09;3.93;;;1.90;;
13973;SDS011;7060;43.770;4.008;2024-02-16T10:35:39;6.70;;;1.40;;
13973;SDS011;7060;43.770;4.008;2024-02-16T10:38:09;7.80;;;1.83;;
13973;SDS011;7060;43.770;4.008;2024-02-16T10:40:38;5.57;;;1.50;;
13973;SDS011;7060;43.770;4.008;2024-02-16T10:43:08;5.77;;;1.50;;
13973;SDS011;7060;43.770;4.008;2024-02-16T10:45:37;5.60;;;1.77;;
13973;SDS011;7060;43.770;4.008;2024-02-16T10:48:07;4.40;;;2.03;;
13973;SDS011;7060;43.770;4.008;2024-02-16T10:50:36;4.57;;;1.67;;
13973;SDS011;7060;43.770;4.008;2024-02-16T10:53:12;7.07;;;2.50;;
13973;SDS011;7060;43.770;4.008;2024-02-16T10:55:45;6.60;;;2.00;;
13973;SDS011;7060;43.770;4.008;2024-02-16T10:58:13;4.30;;;1.50;;
13973;SDS011;7060;43.770;4.008;2024-02-16T11:00:48;5.90;;;1.43;;
13973;SDS011;7060;43.770;4.008;2024-02-16T11:03:21;4.50;;;1.67;;
13973;SDS011;7060;43.770;4.008;2024-02-16T11:05:52;4.03;;;1.47;;
13973;SDS011;7060;43.770;4.008;2024-02-16T11:08:23;3.57;;;1.17;;
13973;SDS011;7060;43.770;4.008;2024-02-16T11:10:54;3.03;;;1.47;;
13973;SDS011;7060;43.770;4.008;2024-02-16T11:13:24;4.93;;;1.70;;
13973;SDS011;7060;43.770;4.008;2024-02-16T11:15:59;7.17;;;1.80;;
13973;SDS011;7060;43.770;4.008;2024-02-16T11:18:29;3.40;;;1.67;;
13973;SDS011;7060;43.770;4.008;2024-02-16T11:21:01;7.23;;;1.50;;
13973;SDS011;7060;43.770;4.008;2024-02-16T11:23:33;9.70;;;1.80;;
13973;SDS011;7060;43.770;4.008;2024-02-16T11:26:03;3.20;;;0.97;;
13973;SDS011;7060;43.770;4.008;2024-02-16T11:28:33;4.10;;;1.10;;
13973;SDS011;7060;43.770;4.008;2024-02-16T11:31:02;2.47;;;1.20;;
13973;SDS011;7060;43.770;4.008;2024-02-16T11:33:31;4.47;;;1.20;;
13973;SDS011;7060;43.770;4.008;2024-02-16T11:36:00;6.83;;;1.47;;
13973;SDS011;7060;43.770;4.008;2024-02-16T11:38:32;5.10;;;1.10;;
13973;SDS011;7060;43.770;4.008;2024-02-16T11:41:01;2.77;;;1.20;;
13973;SDS011;7060;43.770;4.008;2024-02-16T11:43:30;2.97;;;0.90;;
13973;SDS011;7060;43.770;4.008;2024-02-16T11:46:10;5.10;;;1.27;;
13973;SDS011;7060;43.770;4.008;2024-02-16T11:48:38;7.17;;;1.50;;
13973;SDS011;7060;43.770;4.008;2024-02-16T11:51:07;5.57;;;1.00;;
13973;SDS011;7060;43.770;4.008;2024-02-16T11:53:36;5.50;;;1.13;;
13973;SDS011;7060;43.770;4.008;2024-02-16T11:56:05;4.07;;;1.40;;
13973;SDS011;7060;43.770;4.008;2024-02-16T11:58:33;2.00;;;1.00;;
13973;SDS011;7060;43.770;4.008;2024-02-16T12:01:03;6.57;;;1.30;;
13973;SDS011;7060;43.770;4.008;2024-02-16T12:03:40;2.30;;;1.10;;
13973;SDS011;7060;43.770;4.008;2024-02-16T12:06:09;3.30;;;1.10;;
13973;SDS011;7060;43.770;4.008;2024-02-16T12:08:49;2.90;;;1.00;;
13973;SDS011;7060;43.770;4.008;2024-02-16T12:11:19;6.70;;;1.07;;
13973;SDS011;7060;43.770;4.008;2024-02-16T12:13:47;5.13;;;1.53;;
13973;SDS011;7060;43.770;4.008;2024-02-16T12:16:15;4.10;;;1.57;;
13973;SDS011;7060;43.770;4.008;2024-02-16T12:18:46;4.27;;;1.10;;
13973;SDS011;7060;43.770;4.008;2024-02-16T12:21:17;4.70;;;0.90;;
13973;SDS011;7060;43.770;4.008;2024-02-16T12:23:48;3.30;;;1.03;;
13973;SDS011;7060;43.770;4.008;2024-02-16T12:26:16;3.53;;;1.00;;
13973;SDS011;7060;43.770;4.008;2024-02-16T12:28:44;3.17;;;1.30;;
13973;SDS011;7060;43.770;4.008;2024-02-16T12:31:17;5.00;;;1.10;;
13973;SDS011;7060;43.770;4.008;2024-02-16T12:33:46;3.80;;;1.07;;
13973;SDS011;7060;43.770;4.008;2024-02-16T12:36:14;2.17;;;0.90;;
13973;SDS011;7060;43.770;4.008;2024-02-16T12:38:43;5.10;;;1.40;;
13973;SDS011;7060;43.770;4.008;2024-02-16T12:41:13;3.27;;;1.07;;
13973;SDS011;7060;43.770;4.008;2024-02-16T12:43:41;3.87;;;1.07;;
13973;SDS011;7060;43.770;4.008;2024-02-16T12:46:09;1.67;;;0.80;;
13973;SDS011;7060;43.770;4.008;2024-02-16T12:48:37;4.47;;;1.20;;
13973;SDS011;7060;43.770;4.008;2024-02-16T12:51:05;3.63;;;0.90;;
13973;SDS011;7060;43.770;4.008;2024-02-16T12:53:33;5.17;;;0.90;;
13973;SDS011;7060;43.770;4.008;2024-02-16T12:56:07;2.20;;;0.90;;
13973;SDS011;7060;43.770;4.008;2024-02-16T12:58:37;3.53;;;1.30;;
13973;SDS011;7060;43.770;4.008;2024-02-16T13:01:05;2.60;;;0.70;;
13973;SDS011;7060;43.770;4.008;2024-02-16T13:03:48;1.70;;;0.77;;
13973;SDS011;7060;43.770;4.008;2024-02-16T13:06:16;2.17;;;0.80;;
13973;SDS011;7060;43.770;4.008;2024-02-16T13:08:44;4.23;;;1.23;;
13973;SDS011;7060;43.770;4.008;2024-02-16T13:11:12;2.70;;;1.10;;
13973;SDS011;7060;43.770;4.008;2024-02-16T13:13:42;4.07;;;1.10;;
13973;SDS011;7060;43.770;4.008;2024-02-16T13:16:10;3.43;;;1.00;;
13973;SDS011;7060;43.770;4.008;2024-02-16T13:18:38;2.80;;;1.00;;
13973;SDS011;7060;43.770;4.008;2024-02-16T13:21:07;2.43;;;0.83;;
13973;SDS011;7060;43.770;4.008;2024-02-16T13:23:36;2.20;;;0.77;;
13973;SDS011;7060;43.770;4.008;2024-02-16T13:26:04;3.97;;;0.60;;
13973;SDS011;7060;43.770;4.008;2024-02-16T13:28:32;1.97;;;0.80;;
13973;SDS011;7060;43.770;4.008;2024-02-16T13:31:02;2.00;;;0.70;;
13973;SDS011;7060;43.770;4.008;2024-02-16T13:33:30;2.60;;;0.80;;
13973;SDS011;7060;43.770;4.008;2024-02-16T13:35:58;3.23;;;1.07;;
13973;SDS011;7060;43.770;4.008;2024-02-16T13:38:26;2.30;;;0.90;;
13973;SDS011;7060;43.770;4.008;2024-02-16T13:40:54;5.87;;;3.50;;
13973;SDS011;7060;43.770;4.008;2024-02-16T13:43:22;3.87;;;1.13;;
13973;SDS011;7060;43.770;4.008;2024-02-16T13:45:52;2.97;;;0.57;;
13973;SDS011;7060;43.770;4.008;2024-02-16T13:48:22;3.00;;;0.80;;
13973;SDS011;7060;43.770;4.008;2024-02-16T13:50:51;3.77;;;0.80;;
13973;SDS011;7060;43.770;4.008;2024-02-16T13:53:20;2.03;;;0.77;;
13973;SDS011;7060;43.770;4.008;2024-02-16T13:55:49;3.57;;;1.03;;
13973;SDS011;7060;43.770;4.008;2024-02-16T13:58:17;3.10;;;0.70;;
13973;SDS011;7060;43.770;4.008;2024-02-16T14:00:45;2.23;;;0.60;;
13973;SDS011;7060;43.770;4.008;2024-02-16T14:03:13;7.47;;;3.13;;
13973;SDS011;7060;43.770;4.008;2024-02-16T14:05:43;6.40;;;1.97;;
13973;SDS011;7060;43.770;4.008;2024-02-16T14:08:13;5.57;;;1.93;;
13973;SDS011;7060;43.770;4.008;2024-02-16T14:10:42;8.93;;;2.50;;
13973;SDS011;7060;43.770;4.008;2024-02-16T14:13:10;3.20;;;1.47;;
13973;SDS011;7060;43.770;4.008;2024-02-16T14:15:38;7.77;;;1.60;;
13973;SDS011;7060;43.770;4.008;2024-02-16T14:18:06;3.67;;;1.20;;
13973;SDS011;7060;43.770;4.008;2024-02-16T14:20:48;6.47;;;1.67;;
13973;SDS011;7060;43.770;4.008;2024-02-16T14:23:19;3.83;;;1.57;;
13973;SDS011;7060;43.770;4.008;2024-02-16T14:25:47;6.67;;;1.83;;
13973;SDS011;7060;43.770;4.008;2024-02-16T14:28:15;4.77;;;1.70;;
13973;SDS011;7060;43.770;4.008;2024-02-16T14:30:43;6.77;;;1.73;;
13973;SDS011;7060;43.770;4.008;2024-02-16T14:33:11;7.10;;;2.00;;
13973;SDS011;7060;43.770;4.008;2024-02-16T14:35:42;6.10;;;1.53;;
13973;SDS011;7060;43.770;4.008;2024-02-16T14:38:11;3.80;;;1.40;;
13973;SDS011;7060;43.770;4.008;2024-02-16T14:40:40;5.03;;;1.70;;
13973;SDS011;7060;43.770;4.008;2024-02-16T14:43:08;5.67;;;2.00;;
13973;SDS011;7060;43.770;4.008;2024-02-16T14:45:36;4.73;;;1.40;;
13973;SDS011;7060;43.770;4.008;2024-02-16T14:48:06;5.70;;;2.07;;
13973;SDS011;7060;43.770;4.008;2024-02-16T14:50:34;5.13;;;1.90;;
13973;SDS011;7060;43.770;4.008;2024-02-16T14:53:02;5.97;;;1.87;;
13973;SDS011;7060;43.770;4.008;2024-02-16T14:55:32;4.07;;;1.80;;
13973;SDS011;7060;43.770;4.008;2024-02-16T14:58:00;3.63;;;1.63;;
13973;SDS011;7060;43.770;4.008;2024-02-16T15:00:28;4.13;;;2.03;;
13973;SDS011;7060;43.770;4.008;2024-02-16T15:02:56;5.77;;;2.17;;
13973;SDS011;7060;43.770;4.008;2024-02-16T15:05:24;5.27;;;1.70;;
13973;SDS011;7060;43.770;4.008;2024-02-16T15:07:52;6.70;;;2.37;;
13973;SDS011;7060;43.770;4.008;2024-02-16T15:10:20;6.23;;;2.40;;